createdAt,value
2022-12-07T00:00:11.755Z,6.06
2022-12-07T00:01:12.059Z,6.04
2022-12-07T00:02:12.411Z,6.01
2022-12-07T00:03:12.713Z,6.06
2022-12-07T00:04:12.899Z,6.00
2022-12-07T00:05:13.216Z,6.00
2022-12-07T00:06:13.526Z,6.01
2022-12-07T00:07:13.818Z,6.03
2022-12-07T00:08:14.162Z,6.06
2022-12-07T00:09:14.523Z,6.09
2022-12-07T00:10:14.742Z,6.11
2022-12-07T00:11:15.110Z,6.16
2022-12-07T00:12:15.388Z,6.11
2022-12-07T00:13:15.697Z,6.13
2022-12-07T00:14:16.024Z,6.13
2022-12-07T00:15:16.356Z,6.19
2022-12-07T00:16:16.679Z,6.14
2022-12-07T00:17:17.051Z,6.19
2022-12-07T00:18:17.238Z,6.18
2022-12-07T00:19:17.620Z,6.19
2022-12-07T00:20:17.796Z,6.21
2022-12-07T00:21:18.122Z,6.22
2022-12-07T00:22:18.418Z,6.22
2022-12-07T00:23:18.743Z,6.25
2022-12-07T00:24:19.019Z,6.26
2022-12-07T00:25:19.411Z,6.28
2022-12-07T00:26:19.692Z,6.25
2022-12-07T00:27:20.029Z,6.18
2022-12-07T00:28:20.277Z,6.16
2022-12-07T00:29:20.466Z,6.13
2022-12-07T00:30:20.734Z,6.10
2022-12-07T00:31:21.180Z,6.13
2022-12-07T00:32:21.429Z,6.14
2022-12-07T00:33:21.596Z,6.07
2022-12-07T00:34:21.845Z,6.04
2022-12-07T00:35:22.171Z,6.06
2022-12-07T00:36:26.617Z,6.04
2022-12-07T00:37:22.816Z,6.07
2022-12-07T00:38:23.149Z,6.06
2022-12-07T00:39:23.499Z,6.10
2022-12-07T00:40:23.776Z,6.10
2022-12-07T00:41:24.096Z,6.14
2022-12-07T00:42:24.433Z,6.16
2022-12-07T00:43:24.957Z,6.16
2022-12-07T00:44:24.997Z,6.16
2022-12-07T00:45:25.383Z,6.14
2022-12-07T00:46:26.619Z,6.16
2022-12-07T00:47:25.843Z,6.14
2022-12-07T00:48:26.154Z,6.11
2022-12-07T00:49:26.457Z,6.09
2022-12-07T00:50:26.769Z,6.09
2022-12-07T00:51:27.077Z,6.09
2022-12-07T00:52:27.398Z,6.07
2022-12-07T00:53:27.696Z,6.07
2022-12-07T00:54:28.034Z,6.06
2022-12-07T00:55:28.337Z,6.10
2022-12-07T00:56:28.631Z,6.06
2022-12-07T00:57:29.771Z,6.03
2022-12-07T00:58:29.188Z,5.92
2022-12-07T00:59:29.575Z,5.83
2022-12-07T01:00:29.729Z,5.86
2022-12-07T01:01:30.100Z,5.89
2022-12-07T01:02:30.358Z,5.93
2022-12-07T01:03:30.808Z,6.00
2022-12-07T01:04:31.057Z,6.04
2022-12-07T01:05:31.224Z,6.06
2022-12-07T01:06:31.541Z,6.00
2022-12-07T01:07:31.816Z,5.89
2022-12-07T01:08:32.093Z,5.73
2022-12-07T01:09:32.488Z,5.63
2022-12-07T01:10:32.802Z,5.52
2022-12-07T01:11:33.106Z,5.50
2022-12-07T01:12:33.396Z,5.52
2022-12-07T01:13:33.713Z,5.59
2022-12-07T01:14:34.419Z,5.60
2022-12-07T01:15:34.286Z,5.66
2022-12-07T01:16:34.653Z,5.66
2022-12-07T01:17:34.825Z,5.63
2022-12-07T01:18:35.141Z,5.60
2022-12-07T01:19:35.470Z,5.67
2022-12-07T01:20:35.829Z,5.63
2022-12-07T01:21:36.166Z,5.64
2022-12-07T01:22:36.432Z,5.57
2022-12-07T01:23:36.765Z,5.57
2022-12-07T01:24:37.098Z,5.67
2022-12-07T01:25:37.400Z,5.66
2022-12-07T01:26:37.704Z,5.67
2022-12-07T01:27:38.022Z,5.59
2022-12-07T01:28:38.320Z,5.53
2022-12-07T01:29:38.627Z,5.45
2022-12-07T01:30:38.957Z,5.45
2022-12-07T01:31:39.287Z,5.46
2022-12-07T01:32:39.442Z,5.46
2022-12-07T01:33:39.816Z,5.52
2022-12-07T01:34:40.090Z,5.56
2022-12-07T01:35:40.463Z,5.57
2022-12-07T01:36:40.784Z,5.59
2022-12-07T01:37:41.080Z,5.64
2022-12-07T01:38:41.391Z,5.68
2022-12-07T01:39:41.624Z,5.68
2022-12-07T01:40:41.929Z,5.71
2022-12-07T01:41:42.301Z,5.73
2022-12-07T01:42:42.439Z,5.74
2022-12-07T01:43:42.816Z,5.78
2022-12-07T01:44:43.067Z,5.81
2022-12-07T01:45:43.479Z,5.78
2022-12-07T01:46:43.689Z,5.78
2022-12-07T01:47:43.985Z,5.77
2022-12-07T01:48:44.261Z,5.78
2022-12-07T01:49:44.592Z,5.75
2022-12-07T01:50:44.888Z,5.82
2022-12-07T01:51:45.252Z,5.82
2022-12-07T01:52:45.490Z,5.71
2022-12-07T01:53:45.787Z,5.74
2022-12-07T01:54:46.129Z,5.68
2022-12-07T01:55:46.445Z,5.73
2022-12-07T01:56:46.722Z,5.68
2022-12-07T01:57:47.072Z,5.66
2022-12-07T01:58:47.261Z,5.60
2022-12-07T01:59:47.587Z,5.53
2022-12-07T02:00:47.881Z,5.53
2022-12-07T02:01:48.270Z,5.40
2022-12-07T02:02:48.565Z,5.43
2022-12-07T02:03:48.839Z,5.46
2022-12-07T02:04:49.135Z,5.52
2022-12-07T02:05:49.424Z,5.48
2022-12-07T02:06:50.584Z,5.40
2022-12-07T02:07:50.938Z,5.35
2022-12-07T02:08:50.347Z,5.35
2022-12-07T02:09:50.683Z,5.25
2022-12-07T02:10:50.971Z,5.34
2022-12-07T02:11:51.176Z,5.32
2022-12-07T02:12:51.465Z,5.40
2022-12-07T02:13:51.793Z,5.40
2022-12-07T02:14:52.111Z,5.43
2022-12-07T02:15:52.491Z,5.45
2022-12-07T02:16:52.701Z,5.46
2022-12-07T02:17:53.008Z,5.52
2022-12-07T02:18:53.289Z,5.52
2022-12-07T02:19:53.706Z,5.59
2022-12-07T02:20:53.894Z,5.60
2022-12-07T02:21:54.265Z,5.52
2022-12-07T02:22:54.435Z,5.53
2022-12-07T02:23:54.769Z,5.40
2022-12-07T02:24:54.957Z,5.32
2022-12-07T02:25:55.277Z,5.32
2022-12-07T02:26:55.624Z,5.34
2022-12-07T02:27:55.957Z,5.34
2022-12-07T02:28:56.230Z,5.38
2022-12-07T02:29:56.533Z,5.38
2022-12-07T02:30:56.947Z,5.35
2022-12-07T02:31:57.168Z,5.37
2022-12-07T02:32:57.456Z,5.34
2022-12-07T02:33:57.800Z,5.35
2022-12-07T02:34:58.086Z,5.40
2022-12-07T02:35:58.459Z,5.38
2022-12-07T02:36:58.713Z,5.37
2022-12-07T02:37:59.042Z,5.38
2022-12-07T02:38:59.399Z,5.43
2022-12-07T02:40:00.127Z,5.41
2022-12-07T02:41:00.000Z,5.43
2022-12-07T02:42:00.307Z,5.49
2022-12-07T02:43:00.666Z,5.55
2022-12-07T02:44:00.946Z,5.52
2022-12-07T02:45:01.240Z,5.52
2022-12-07T02:46:01.655Z,5.48
2022-12-07T02:47:01.804Z,5.46
2022-12-07T02:48:02.150Z,5.48
2022-12-07T02:49:02.443Z,5.48
2022-12-07T02:50:03.010Z,5.52
2022-12-07T02:51:02.994Z,5.57
2022-12-07T02:52:03.377Z,5.57
2022-12-07T02:53:03.678Z,5.63
2022-12-07T02:54:03.969Z,5.63
2022-12-07T02:55:04.283Z,5.57
2022-12-07T02:56:04.567Z,5.63
2022-12-07T02:57:04.863Z,5.57
2022-12-07T02:58:05.165Z,5.53
2022-12-07T02:59:05.485Z,5.55
2022-12-07T03:00:06.190Z,5.49
2022-12-07T03:01:06.191Z,5.49
2022-12-07T03:02:06.414Z,5.49
2022-12-07T03:03:06.788Z,5.50
2022-12-07T03:04:06.952Z,5.56
2022-12-07T03:05:07.259Z,5.57
2022-12-07T03:06:07.586Z,5.57
2022-12-07T03:07:07.769Z,5.56
2022-12-07T03:08:08.171Z,5.56
2022-12-07T03:09:08.331Z,5.59
2022-12-07T03:10:08.685Z,5.53
2022-12-07T03:11:08.975Z,5.50
2022-12-07T03:12:09.288Z,5.45
2022-12-07T03:13:09.612Z,5.48
2022-12-07T03:14:09.924Z,5.50
2022-12-07T03:15:10.166Z,5.50
2022-12-07T03:16:10.540Z,5.50
2022-12-07T03:17:10.707Z,5.48
2022-12-07T03:18:10.975Z,5.50
2022-12-07T03:19:11.239Z,5.48
2022-12-07T03:20:11.584Z,5.52
2022-12-07T03:21:11.898Z,5.50
2022-12-07T03:22:12.281Z,5.56
2022-12-07T03:23:12.607Z,5.59
2022-12-07T03:24:12.840Z,5.57
2022-12-07T03:25:13.087Z,5.59
2022-12-07T03:26:13.425Z,5.55
2022-12-07T03:27:13.721Z,5.52
2022-12-07T03:28:14.037Z,5.53
2022-12-07T03:29:14.328Z,5.59
2022-12-07T03:30:14.685Z,5.60
2022-12-07T03:31:15.020Z,5.60
2022-12-07T03:32:15.243Z,5.64
2022-12-07T03:33:15.604Z,5.50
2022-12-07T03:34:15.796Z,5.52
2022-12-07T03:35:16.119Z,5.55
2022-12-07T03:36:16.462Z,5.55
2022-12-07T03:37:16.639Z,5.59
2022-12-07T03:38:17.049Z,5.57
2022-12-07T03:39:17.210Z,5.64
2022-12-07T03:40:18.537Z,5.57
2022-12-07T03:41:17.835Z,5.56
2022-12-07T03:42:18.189Z,5.57
2022-12-07T03:43:18.536Z,5.45
2022-12-07T03:44:18.849Z,5.43
2022-12-07T03:45:19.135Z,5.41
2022-12-07T03:46:19.477Z,5.41
2022-12-07T03:47:19.652Z,5.41
2022-12-07T03:48:19.872Z,5.46
2022-12-07T03:49:20.267Z,5.43
2022-12-07T03:50:21.445Z,5.49
2022-12-07T03:51:20.847Z,5.50
2022-12-07T03:52:21.013Z,5.52
2022-12-07T03:53:21.342Z,5.63
2022-12-07T03:54:21.704Z,5.66
2022-12-07T03:55:21.888Z,5.59
2022-12-07T03:56:22.102Z,5.55
2022-12-07T03:57:22.431Z,5.55
2022-12-07T03:58:22.761Z,5.48
2022-12-07T03:59:23.043Z,5.41
2022-12-07T04:00:23.355Z,5.40
2022-12-07T04:01:23.697Z,5.38
2022-12-07T04:02:23.961Z,5.48
2022-12-07T04:03:24.313Z,5.46
2022-12-07T04:04:24.605Z,5.45
2022-12-07T04:05:24.793Z,5.43
2022-12-07T04:06:25.167Z,5.43
2022-12-07T04:07:25.501Z,5.46
2022-12-07T04:08:25.951Z,5.45
2022-12-07T04:09:26.123Z,5.37
2022-12-07T04:10:26.387Z,5.32
2022-12-07T04:11:26.706Z,5.28
2022-12-07T04:12:27.117Z,5.23
2022-12-07T04:13:27.290Z,5.23
2022-12-07T04:14:27.605Z,5.25
2022-12-07T04:15:27.883Z,5.30
2022-12-07T04:16:28.292Z,5.25
2022-12-07T04:17:28.541Z,5.27
2022-12-07T04:18:28.796Z,5.30
2022-12-07T04:19:28.985Z,5.32
2022-12-07T04:20:29.308Z,5.31
2022-12-07T04:21:29.618Z,5.34
2022-12-07T04:22:29.927Z,5.37
2022-12-07T04:23:30.157Z,5.41
2022-12-07T04:24:30.493Z,5.48
2022-12-07T04:25:30.791Z,5.48
2022-12-07T04:26:31.092Z,5.50
2022-12-07T04:27:31.406Z,5.50
2022-12-07T04:28:31.715Z,5.48
2022-12-07T04:29:32.053Z,5.49
2022-12-07T04:30:32.218Z,5.45
2022-12-07T04:31:32.567Z,5.45
2022-12-07T04:32:32.780Z,5.35
2022-12-07T04:33:33.070Z,5.28
2022-12-07T04:34:33.388Z,5.22
2022-12-07T04:35:33.726Z,5.22
2022-12-07T04:36:34.033Z,5.28
2022-12-07T04:37:34.320Z,5.34
2022-12-07T04:38:34.697Z,5.32
2022-12-07T04:39:34.986Z,5.32
2022-12-07T04:40:35.319Z,5.35
2022-12-07T04:41:35.618Z,5.34
2022-12-07T04:42:36.368Z,5.34
2022-12-07T04:43:36.218Z,5.38
2022-12-07T04:44:36.578Z,5.38
2022-12-07T04:45:36.772Z,5.35
2022-12-07T04:46:37.178Z,5.32
2022-12-07T04:47:37.378Z,5.32
2022-12-07T04:48:37.681Z,5.25
2022-12-07T04:49:38.016Z,5.27
2022-12-07T04:50:43.091Z,5.25
2022-12-07T04:51:39.629Z,5.22
2022-12-07T04:52:38.917Z,5.16
2022-12-07T04:53:39.258Z,5.16
2022-12-07T04:54:39.586Z,5.14
2022-12-07T04:55:39.893Z,5.17
2022-12-07T04:56:40.185Z,5.17
2022-12-07T04:57:40.475Z,5.16
2022-12-07T04:58:40.806Z,5.07
2022-12-07T04:59:45.591Z,4.98
2022-12-07T05:00:42.499Z,5.01
2022-12-07T05:01:41.672Z,5.07
2022-12-07T05:02:41.962Z,5.09
2022-12-07T05:03:42.280Z,5.10
2022-12-07T05:04:42.570Z,5.02
2022-12-07T05:05:42.859Z,5.01
2022-12-07T05:06:43.217Z,5.09
2022-12-07T05:07:43.481Z,5.12
2022-12-07T05:08:43.739Z,5.10
2022-12-07T05:09:44.064Z,5.12
2022-12-07T05:10:44.374Z,5.07
2022-12-07T05:11:44.689Z,5.01
2022-12-07T05:12:44.977Z,4.98
2022-12-07T05:13:46.172Z,5.02
2022-12-07T05:14:45.550Z,4.92
2022-12-07T05:15:45.899Z,4.92
2022-12-07T05:16:46.131Z,4.91
2022-12-07T05:17:46.318Z,4.95
2022-12-07T05:18:46.619Z,4.95
2022-12-07T05:19:46.886Z,4.96
2022-12-07T05:20:47.248Z,4.99
2022-12-07T05:21:47.552Z,4.95
2022-12-07T05:22:47.855Z,4.91
2022-12-07T05:23:48.034Z,4.86
2022-12-07T05:24:48.368Z,4.84
2022-12-07T05:25:48.670Z,4.84
2022-12-07T05:26:48.946Z,4.88
2022-12-07T05:27:49.254Z,4.86
2022-12-07T05:28:49.609Z,4.91
2022-12-07T05:29:49.938Z,4.95
2022-12-07T05:30:50.240Z,4.96
2022-12-07T05:31:50.624Z,4.99
2022-12-07T05:32:50.844Z,4.94
2022-12-07T05:33:51.096Z,4.94
2022-12-07T05:34:51.433Z,4.92
2022-12-07T05:35:51.722Z,4.91
2022-12-07T05:36:52.030Z,4.92
2022-12-07T05:37:52.392Z,4.92
2022-12-07T05:38:52.637Z,4.86
2022-12-07T05:39:52.938Z,4.73
2022-12-07T05:40:53.257Z,4.76
2022-12-07T05:41:53.556Z,4.80
2022-12-07T05:42:53.878Z,4.91
2022-12-07T05:43:54.177Z,4.89
2022-12-07T05:44:54.518Z,4.91
2022-12-07T05:45:54.849Z,4.92
2022-12-07T05:46:55.053Z,4.98
2022-12-07T05:47:55.378Z,4.95
2022-12-07T05:48:55.676Z,4.92
2022-12-07T05:49:56.090Z,5.01
2022-12-07T05:50:56.271Z,5.05
2022-12-07T05:51:56.548Z,5.02
2022-12-07T05:52:56.855Z,5.09
2022-12-07T05:53:57.173Z,5.12
2022-12-07T05:54:57.496Z,5.07
2022-12-07T05:55:57.803Z,5.04
2022-12-07T05:56:58.129Z,5.09
2022-12-07T05:57:58.474Z,5.17
2022-12-07T05:58:58.782Z,5.20
2022-12-07T05:59:59.770Z,5.25
2022-12-07T06:00:59.290Z,5.30
2022-12-07T06:01:59.927Z,5.31
2022-12-07T06:03:00.037Z,5.34
2022-12-07T06:04:00.266Z,5.34
2022-12-07T06:05:00.372Z,5.35
2022-12-07T06:06:00.773Z,5.38
2022-12-07T06:07:01.005Z,5.38
2022-12-07T06:08:05.611Z,5.32
2022-12-07T06:09:02.475Z,5.35
2022-12-07T06:10:02.145Z,5.40
2022-12-07T06:11:02.056Z,5.38
2022-12-07T06:12:02.346Z,5.37
2022-12-07T06:13:02.664Z,5.41
2022-12-07T06:14:03.024Z,5.38
2022-12-07T06:15:03.255Z,5.40
2022-12-07T06:16:04.473Z,5.40
2022-12-07T06:17:03.966Z,5.45
2022-12-07T06:18:04.213Z,5.48
2022-12-07T06:19:04.542Z,5.46
2022-12-07T06:20:05.050Z,5.46
2022-12-07T06:21:05.131Z,5.41
2022-12-07T06:22:05.300Z,5.41
2022-12-07T06:23:05.644Z,5.46
2022-12-07T06:24:05.943Z,5.38
2022-12-07T06:25:08.763Z,5.41
2022-12-07T06:26:06.510Z,5.41
2022-12-07T06:27:06.820Z,5.48
2022-12-07T06:28:07.068Z,5.56
2022-12-07T06:29:07.401Z,5.56
2022-12-07T06:30:07.805Z,5.59
2022-12-07T06:31:13.452Z,5.63
2022-12-07T06:32:09.391Z,5.56
2022-12-07T06:33:08.389Z,5.55
2022-12-07T06:34:09.182Z,5.60
2022-12-07T06:35:09.003Z,5.53
2022-12-07T06:36:09.286Z,5.48
2022-12-07T06:37:09.555Z,5.48
2022-12-07T06:38:09.764Z,5.48
2022-12-07T06:39:10.234Z,5.45
2022-12-07T06:40:10.476Z,5.49
2022-12-07T06:41:10.804Z,5.49
2022-12-07T06:42:11.096Z,5.50
2022-12-07T06:43:11.409Z,5.43
2022-12-07T06:44:11.700Z,5.41
2022-12-07T06:45:11.990Z,5.38
2022-12-07T06:46:12.381Z,5.40
2022-12-07T06:47:39.599Z,5.40
2022-12-07T06:48:13.867Z,5.37
2022-12-07T06:49:13.174Z,5.35
2022-12-07T06:50:13.477Z,5.32
2022-12-07T06:51:13.727Z,5.35
2022-12-07T06:52:13.989Z,5.35
2022-12-07T06:53:14.216Z,5.34
2022-12-07T06:54:14.449Z,5.41
2022-12-07T06:55:14.992Z,5.43
2022-12-07T06:56:15.118Z,5.43
2022-12-07T06:57:15.308Z,5.45
2022-12-07T06:58:15.671Z,5.41
2022-12-07T06:59:15.941Z,5.40
2022-12-07T07:00:21.913Z,5.40
2022-12-07T07:01:17.614Z,5.45
2022-12-07T07:02:16.755Z,5.50
2022-12-07T07:03:16.921Z,5.53
2022-12-07T07:04:17.144Z,5.55
2022-12-07T07:05:17.475Z,5.50
2022-12-07T07:06:17.810Z,5.46
2022-12-07T07:07:18.198Z,5.40
2022-12-07T07:08:22.814Z,5.31
2022-12-07T07:09:18.860Z,5.27
2022-12-07T07:10:19.049Z,5.23
2022-12-07T07:11:19.398Z,5.25
2022-12-07T07:12:19.697Z,5.28
2022-12-07T07:13:19.853Z,5.31
2022-12-07T07:14:20.219Z,5.34
2022-12-07T07:15:20.500Z,5.40
2022-12-07T07:16:20.782Z,5.46
2022-12-07T07:17:21.061Z,5.48
2022-12-07T07:18:21.230Z,5.52
2022-12-07T07:19:21.528Z,5.55
2022-12-07T07:20:21.806Z,5.52
2022-12-07T07:21:22.038Z,5.50
2022-12-07T07:22:22.242Z,5.52
2022-12-07T07:23:22.633Z,5.59
2022-12-07T07:24:22.837Z,5.63
2022-12-07T07:25:23.198Z,5.64
2022-12-07T07:26:23.636Z,5.63
2022-12-07T07:27:23.789Z,5.66
2022-12-07T07:28:24.044Z,5.67
2022-12-07T07:29:24.310Z,5.66
2022-12-07T07:30:24.612Z,5.67
2022-12-07T07:31:24.875Z,5.67
2022-12-07T07:32:25.158Z,5.56
2022-12-07T07:33:25.374Z,5.56
2022-12-07T07:34:25.641Z,5.55
2022-12-07T07:35:26.000Z,5.56
2022-12-07T07:36:26.181Z,5.59
2022-12-07T07:37:26.456Z,5.56
2022-12-07T07:38:26.674Z,5.64
2022-12-07T07:39:26.923Z,5.63
2022-12-07T07:40:27.215Z,5.64
2022-12-07T07:41:27.416Z,5.63
2022-12-07T07:42:27.665Z,5.60
2022-12-07T07:43:27.943Z,5.66
2022-12-07T07:44:33.337Z,5.67
2022-12-07T07:45:29.494Z,5.73
2022-12-07T07:46:28.863Z,5.75
2022-12-07T07:47:29.075Z,5.75
2022-12-07T07:48:29.298Z,5.74
2022-12-07T07:49:29.593Z,5.70
2022-12-07T07:50:29.845Z,5.71
2022-12-07T07:51:30.147Z,5.68
2022-12-07T07:52:30.389Z,5.66
2022-12-07T07:53:30.711Z,5.64
2022-12-07T07:54:30.974Z,5.66
2022-12-07T07:55:31.257Z,5.63
2022-12-07T07:56:31.517Z,5.56
2022-12-07T07:57:31.749Z,5.56
2022-12-07T07:58:31.984Z,5.59
2022-12-07T07:59:32.249Z,5.55
2022-12-07T08:00:32.575Z,5.53
2022-12-07T08:01:32.874Z,5.56
2022-12-07T08:02:33.083Z,5.56
2022-12-07T08:03:33.358Z,5.67
2022-12-07T08:04:33.815Z,5.64
2022-12-07T08:05:33.904Z,5.71
2022-12-07T08:06:34.178Z,5.73
2022-12-07T08:07:34.911Z,5.70
2022-12-07T08:08:34.752Z,5.67
2022-12-07T08:09:35.215Z,5.70
2022-12-07T08:10:35.263Z,5.71
2022-12-07T08:11:35.567Z,5.70
2022-12-07T08:12:36.773Z,5.74
2022-12-07T08:13:36.141Z,5.81
2022-12-07T08:14:36.375Z,5.88
2022-12-07T08:15:36.681Z,5.92
2022-12-07T08:16:36.967Z,5.83
2022-12-07T08:17:37.218Z,5.88
2022-12-07T08:18:37.596Z,5.89
2022-12-07T08:19:37.761Z,5.88
2022-12-07T08:20:38.038Z,5.82
2022-12-07T08:21:38.295Z,5.89
2022-12-07T08:22:38.695Z,5.89
2022-12-07T08:23:40.043Z,5.93
2022-12-07T08:24:39.183Z,6.00
2022-12-07T08:25:39.468Z,6.00
2022-12-07T08:26:39.725Z,6.00
2022-12-07T08:27:40.017Z,6.01
2022-12-07T08:28:40.298Z,6.03
2022-12-07T08:29:40.586Z,6.06
2022-12-07T08:30:40.987Z,6.01
2022-12-07T08:31:41.267Z,6.00
2022-12-07T08:32:41.380Z,6.01
2022-12-07T08:33:41.661Z,6.07
2022-12-07T08:34:41.974Z,6.01
2022-12-07T08:35:42.172Z,6.00
2022-12-07T08:36:42.428Z,5.83
2022-12-07T08:37:42.690Z,5.85
2022-12-07T08:38:56.122Z,5.91
2022-12-07T08:39:44.365Z,5.93
2022-12-07T08:40:43.531Z,5.95
2022-12-07T08:41:43.808Z,5.98
2022-12-07T08:42:44.075Z,6.01
2022-12-07T08:43:44.358Z,5.96
2022-12-07T08:44:44.615Z,5.93
2022-12-07T08:45:44.902Z,5.96
2022-12-07T08:46:45.263Z,5.93
2022-12-07T08:47:45.503Z,6.00
2022-12-07T08:48:45.776Z,6.04
2022-12-07T08:49:46.524Z,5.98
2022-12-07T08:50:49.734Z,6.03
2022-12-07T08:51:46.597Z,6.04
2022-12-07T08:52:46.919Z,6.04
2022-12-07T08:53:47.155Z,6.03
2022-12-07T08:54:47.482Z,5.96
2022-12-07T08:55:47.746Z,5.93
2022-12-07T08:56:47.963Z,5.89
2022-12-07T08:57:48.245Z,5.89
2022-12-07T08:58:48.489Z,5.89
2022-12-07T08:59:49.216Z,5.93
2022-12-07T09:00:49.047Z,5.92
2022-12-07T09:01:49.393Z,5.93
2022-12-07T09:02:49.625Z,6.01
2022-12-07T09:03:50.365Z,6.06
2022-12-07T09:04:50.140Z,6.03
2022-12-07T09:05:50.456Z,5.98
2022-12-07T09:06:50.785Z,6.04
2022-12-07T09:07:51.085Z,6.10
2022-12-07T09:08:51.322Z,6.14
2022-12-07T09:09:51.605Z,6.16
2022-12-07T09:10:51.852Z,6.14
2022-12-07T09:11:52.151Z,6.21
2022-12-07T09:12:52.480Z,6.25
2022-12-07T09:13:52.777Z,6.19
2022-12-07T09:14:53.003Z,6.22
2022-12-07T09:15:53.354Z,6.18
2022-12-07T09:16:53.553Z,6.06
2022-12-07T09:17:53.824Z,6.06
2022-12-07T09:18:54.160Z,6.04
2022-12-07T09:19:54.391Z,6.10
2022-12-07T09:20:54.629Z,6.16
2022-12-07T09:21:54.974Z,6.22
2022-12-07T09:22:55.172Z,6.29
2022-12-07T09:23:55.460Z,6.36
2022-12-07T09:24:55.776Z,6.35
2022-12-07T09:25:56.078Z,6.38
2022-12-07T09:26:56.339Z,6.48
2022-12-07T09:27:56.655Z,6.46
2022-12-07T09:28:56.870Z,6.44
2022-12-07T09:29:57.187Z,6.46
2022-12-07T09:31:22.763Z,6.48
2022-12-07T09:31:58.727Z,6.48
2022-12-07T09:32:57.925Z,6.47
2022-12-07T09:33:59.185Z,6.46
2022-12-07T09:34:58.513Z,6.43
2022-12-07T09:35:58.790Z,6.44
2022-12-07T09:36:59.064Z,6.35
2022-12-07T09:37:59.376Z,6.40
2022-12-07T09:38:59.612Z,6.46
2022-12-07T09:39:59.878Z,6.43
2022-12-07T09:41:00.155Z,6.36
2022-12-07T09:42:00.444Z,6.38
2022-12-07T09:43:00.748Z,6.40
2022-12-07T09:44:01.132Z,6.44
2022-12-07T09:45:01.246Z,6.50
2022-12-07T09:46:02.560Z,6.48
2022-12-07T09:47:01.765Z,6.56
2022-12-07T09:48:02.041Z,6.62
2022-12-07T09:49:02.351Z,6.63
2022-12-07T09:50:02.904Z,6.69
2022-12-07T09:51:03.018Z,6.56
2022-12-07T09:52:03.219Z,6.50
2022-12-07T09:53:03.433Z,6.43
2022-12-07T09:54:03.772Z,6.35
2022-12-07T09:55:04.433Z,6.33
2022-12-07T09:56:04.374Z,6.36
2022-12-07T09:57:04.594Z,6.47
2022-12-07T09:58:05.344Z,6.56
2022-12-07T09:59:05.153Z,6.61
2022-12-07T10:00:05.455Z,6.65
2022-12-07T10:01:05.707Z,6.68
2022-12-07T10:02:06.100Z,6.69
2022-12-07T10:03:06.717Z,6.77
2022-12-07T10:04:06.562Z,6.77
2022-12-07T10:05:07.301Z,6.79
2022-12-07T10:06:07.035Z,6.83
2022-12-07T10:07:07.280Z,6.84
2022-12-07T10:08:07.644Z,6.84
2022-12-07T10:09:07.865Z,6.86
2022-12-07T10:10:08.169Z,6.89
2022-12-07T10:11:08.432Z,6.95
2022-12-07T10:12:08.751Z,7.01
2022-12-07T10:13:09.897Z,7.04
2022-12-07T10:14:09.289Z,7.08
2022-12-07T10:15:09.646Z,7.13
2022-12-07T10:16:09.940Z,7.19
2022-12-07T10:17:10.236Z,7.16
2022-12-07T10:18:10.559Z,7.04
2022-12-07T10:19:10.758Z,6.97
2022-12-07T10:20:11.924Z,6.89
2022-12-07T10:21:11.299Z,6.94
2022-12-07T10:22:11.564Z,7.02
2022-12-07T10:23:12.321Z,7.08
2022-12-07T10:24:12.242Z,7.15
2022-12-07T10:25:12.455Z,7.09
2022-12-07T10:26:12.727Z,7.13
2022-12-07T10:27:12.983Z,7.17
2022-12-07T10:28:13.326Z,7.23
2022-12-07T10:29:13.585Z,7.24
2022-12-07T10:30:13.853Z,7.23
2022-12-07T10:31:14.223Z,7.16
2022-12-07T10:32:14.417Z,7.16
2022-12-07T10:33:14.702Z,7.15
2022-12-07T10:34:14.995Z,7.04
2022-12-07T10:35:15.261Z,7.02
2022-12-07T10:36:15.624Z,7.12
2022-12-07T10:37:15.898Z,7.05
2022-12-07T10:38:16.220Z,6.98
2022-12-07T10:39:16.540Z,6.99
2022-12-07T10:40:17.708Z,7.07
2022-12-07T10:41:16.949Z,7.09
2022-12-07T10:42:17.231Z,7.13
2022-12-07T10:43:17.543Z,7.17
2022-12-07T10:44:17.827Z,7.15
2022-12-07T10:45:18.151Z,7.16
2022-12-07T10:46:18.338Z,7.19
2022-12-07T10:47:18.645Z,7.23
2022-12-07T10:48:18.968Z,7.27
2022-12-07T10:49:19.178Z,7.27
2022-12-07T10:50:19.491Z,7.24
2022-12-07T10:51:19.735Z,7.20
2022-12-07T10:52:20.029Z,7.24
2022-12-07T10:53:20.297Z,7.27
2022-12-07T10:54:20.504Z,7.31
2022-12-07T10:55:20.785Z,7.32
2022-12-07T10:56:21.085Z,7.35
2022-12-07T10:57:21.285Z,7.37
2022-12-07T10:58:21.546Z,7.31
2022-12-07T10:59:21.766Z,7.31
2022-12-07T11:00:22.151Z,7.38
2022-12-07T11:01:22.413Z,7.34
2022-12-07T11:02:23.132Z,7.31
2022-12-07T11:03:22.898Z,7.37
2022-12-07T11:04:23.182Z,7.32
2022-12-07T11:05:23.456Z,7.31
2022-12-07T11:06:23.741Z,7.29
2022-12-07T11:07:23.993Z,7.24
2022-12-07T11:08:24.365Z,7.23
2022-12-07T11:09:44.936Z,7.20
2022-12-07T11:10:26.038Z,7.20
2022-12-07T11:11:25.051Z,7.17
2022-12-07T11:12:25.285Z,7.08
2022-12-07T11:13:28.821Z,7.04
2022-12-07T11:14:25.891Z,7.02
2022-12-07T11:15:26.238Z,7.05
2022-12-07T11:16:26.492Z,7.05
2022-12-07T11:17:26.814Z,7.04
2022-12-07T11:18:27.097Z,7.02
2022-12-07T11:19:28.656Z,7.04
2022-12-07T11:20:27.616Z,7.05
2022-12-07T11:21:27.969Z,7.12
2022-12-07T11:22:28.182Z,7.13
2022-12-07T11:23:28.429Z,7.19
2022-12-07T11:24:28.613Z,7.23
2022-12-07T11:25:29.271Z,7.26
2022-12-07T11:26:29.226Z,7.24
2022-12-07T11:27:29.508Z,7.27
2022-12-07T11:28:29.745Z,7.26
2022-12-07T11:29:29.985Z,7.27
2022-12-07T11:30:30.235Z,7.26
2022-12-07T11:31:30.612Z,7.24
2022-12-07T11:32:30.835Z,7.24
2022-12-07T11:33:31.066Z,7.23
2022-12-07T11:34:31.323Z,7.27
2022-12-07T11:35:31.586Z,7.31
2022-12-07T11:36:31.923Z,7.27
2022-12-07T11:37:36.368Z,7.29
2022-12-07T11:38:33.425Z,7.35
2022-12-07T11:39:32.655Z,7.34
2022-12-07T11:40:32.963Z,7.34
2022-12-07T11:41:33.195Z,7.35
2022-12-07T11:42:33.433Z,7.31
2022-12-07T11:43:33.678Z,7.31
2022-12-07T11:44:33.931Z,7.27
2022-12-07T11:45:34.154Z,7.31
2022-12-07T11:46:34.466Z,7.27
2022-12-07T11:47:34.674Z,7.27
2022-12-07T11:48:35.080Z,7.26
2022-12-07T11:49:35.189Z,7.23
2022-12-07T11:50:35.605Z,7.16
2022-12-07T11:51:35.736Z,7.12
2022-12-07T11:52:36.064Z,7.12
2022-12-07T11:53:36.301Z,7.17
2022-12-07T11:54:36.574Z,7.22
2022-12-07T11:55:36.829Z,7.31
2022-12-07T11:56:37.113Z,7.37
2022-12-07T11:57:37.416Z,7.40
2022-12-07T11:58:37.676Z,7.38
2022-12-07T11:59:38.081Z,7.47
2022-12-07T12:00:38.212Z,7.41
2022-12-07T12:01:38.517Z,7.38
2022-12-07T12:02:38.822Z,7.38
2022-12-07T12:03:39.142Z,7.42
2022-12-07T12:04:39.551Z,7.50
2022-12-07T12:05:39.642Z,7.55
2022-12-07T12:06:39.955Z,7.59
2022-12-07T12:09:41.785Z,7.66
2022-12-07T12:10:41.041Z,7.56
2022-12-07T12:11:41.442Z,7.52
2022-12-07T12:14:46.581Z,7.49
2022-12-07T12:15:43.441Z,7.41
2022-12-07T12:16:42.749Z,7.32
2022-12-07T12:17:42.955Z,7.35
2022-12-07T12:18:43.332Z,7.35
2022-12-07T12:19:43.637Z,7.34
2022-12-07T12:20:43.884Z,7.32
2022-12-07T12:21:44.152Z,7.27
2022-12-07T12:22:44.475Z,7.24
2022-12-07T12:23:44.675Z,7.17
2022-12-07T12:24:44.946Z,7.20
2022-12-07T12:25:45.211Z,7.19
2022-12-07T12:26:45.514Z,7.13
2022-12-07T12:27:45.777Z,7.15
2022-12-07T12:28:50.212Z,7.19
2022-12-07T12:29:46.303Z,7.24
2022-12-07T12:30:46.572Z,7.26
2022-12-07T12:31:46.882Z,7.34
2022-12-07T12:32:47.125Z,7.32
2022-12-07T12:33:47.418Z,7.37
2022-12-07T12:34:50.766Z,7.38
2022-12-07T12:35:47.989Z,7.47
2022-12-07T12:36:48.327Z,7.53
2022-12-07T12:37:48.701Z,7.56
2022-12-07T12:38:48.796Z,7.62
2022-12-07T12:39:49.058Z,7.63
2022-12-07T12:40:51.308Z,7.59
2022-12-07T12:41:49.570Z,7.59
2022-12-07T12:42:49.868Z,7.59
2022-12-07T12:43:50.097Z,7.62
2022-12-07T12:44:50.337Z,7.66
2022-12-07T12:45:50.646Z,7.67
2022-12-07T12:46:51.032Z,7.67
2022-12-07T12:47:51.187Z,7.67
2022-12-07T12:48:51.488Z,7.60
2022-12-07T12:49:51.666Z,7.58
2022-12-07T12:50:51.930Z,7.56
2022-12-07T12:51:52.190Z,7.55
2022-12-07T12:52:52.502Z,7.53
2022-12-07T12:53:52.737Z,7.38
2022-12-07T12:54:53.000Z,7.37
2022-12-07T12:55:53.363Z,7.31
2022-12-07T12:56:53.588Z,7.24
2022-12-07T12:57:56.153Z,7.29
2022-12-07T12:58:54.157Z,7.32
2022-12-07T12:59:54.380Z,7.34
2022-12-07T13:00:54.813Z,7.29
2022-12-07T13:01:55.088Z,7.22
2022-12-07T13:02:55.432Z,7.16
2022-12-07T13:03:55.638Z,7.20
2022-12-07T13:04:55.899Z,7.23
2022-12-07T13:05:56.197Z,7.23
2022-12-07T13:06:56.438Z,7.24
2022-12-07T13:07:56.764Z,7.20
2022-12-07T13:08:56.972Z,7.20
2022-12-07T13:09:57.284Z,7.23
2022-12-07T13:10:57.626Z,7.26
2022-12-07T13:11:57.898Z,7.31
2022-12-07T13:12:58.166Z,7.37
2022-12-07T13:13:58.440Z,7.38
2022-12-07T13:14:58.688Z,7.38
2022-12-07T13:15:58.947Z,7.40
2022-12-07T13:16:59.345Z,7.38
2022-12-07T13:17:59.521Z,7.38
2022-12-07T13:18:59.810Z,7.41
2022-12-07T13:20:00.065Z,7.42
2022-12-07T13:21:00.352Z,7.45
2022-12-07T13:22:00.720Z,7.45
2022-12-07T13:23:00.838Z,7.44
2022-12-07T13:24:01.129Z,7.42
2022-12-07T13:25:01.713Z,7.50
2022-12-07T13:26:01.761Z,7.53